Avinger, Texas
Current Conditions -  °F | °C
As of 8:15 AM on Thursday 18 Dec 2014 (Local Time) from KOSA Reporting Station
Overcast Overcast  
Wind Chill:   Ceiling: 500
Heat Index:   Visibility: 7mi
Dew Point:   Wind: 5mph
Humidity: 98%   Direction: 110°ESE
Pressure: 30.18"   Gusts: NA
Location:  32.9°N, 94.56°W
Report Text: KOSA 181415Z AUTO 11004KT 7SM BKN005 OVC014 05/05 A3018 RMK AO1 T00540051
Loading
Personal Weather Stations






























Interactive Weather Map New forecast layout! Learn more

10-Day Weather Forecast

Advertisements
Track Severe Weather on mobile